createdAt,value
2022-09-01T00:01:08.780Z,12.00
2022-09-01T00:02:43.198Z,12.00
2022-09-01T00:04:20.106Z,12.00
2022-09-01T00:05:57.060Z,12.00
2022-09-01T00:07:31.603Z,12.00
2022-09-01T00:09:07.913Z,12.00
2022-09-01T00:10:41.950Z,11.90
2022-09-01T00:12:15.109Z,11.90
2022-09-01T00:13:49.157Z,11.90
2022-09-01T00:15:22.509Z,11.80
2022-09-01T00:16:55.712Z,11.90
2022-09-01T00:18:28.845Z,11.90
2022-09-01T00:20:02.110Z,11.80
2022-09-01T00:21:42.329Z,11.80
2022-09-01T00:23:15.546Z,11.80
2022-09-01T00:24:49.074Z,11.80
2022-09-01T00:26:21.468Z,11.80
2022-09-01T00:27:59.253Z,11.80
2022-09-01T00:29:32.454Z,11.90
2022-09-01T00:31:07.878Z,11.90
2022-09-01T00:32:41.134Z,11.90
2022-09-01T00:34:14.545Z,12.00
2022-09-01T00:35:47.708Z,12.00
2022-09-01T00:37:22.228Z,12.00
2022-09-01T00:38:55.553Z,12.00
2022-09-01T00:40:29.363Z,11.90
2022-09-01T00:42:02.976Z,12.00
2022-09-01T00:43:40.929Z,11.90
2022-09-01T00:45:14.510Z,11.90
2022-09-01T00:46:55.517Z,11.90
2022-09-01T00:48:29.006Z,11.80
2022-09-01T00:50:02.675Z,11.80
2022-09-01T00:51:38.703Z,11.80
2022-09-01T00:53:13.775Z,11.80
2022-09-01T00:54:50.310Z,11.70
2022-09-01T00:56:24.308Z,11.70
2022-09-01T00:57:58.158Z,11.70
2022-09-01T00:59:32.813Z,11.60
2022-09-01T01:01:06.492Z,11.60
2022-09-01T01:02:40.760Z,11.60
2022-09-01T01:04:15.838Z,11.60
2022-09-01T01:05:54.954Z,11.60
2022-09-01T01:07:29.426Z,11.60
2022-09-01T01:09:04.187Z,11.60
2022-09-01T01:10:40.160Z,11.50
2022-09-01T01:12:15.886Z,11.50
2022-09-01T01:13:51.375Z,11.40
2022-09-01T01:15:24.567Z,11.50
2022-09-01T01:16:57.787Z,11.50
2022-09-01T01:18:31.241Z,11.50
2022-09-01T01:20:25.766Z,11.50
2022-09-01T01:22:18.167Z,11.50
2022-09-01T01:23:59.020Z,11.40
2022-09-01T01:25:37.113Z,11.40
2022-09-01T01:27:10.666Z,11.40
2022-09-01T01:28:45.216Z,11.40
2022-09-01T01:30:20.903Z,11.40
2022-09-01T01:31:54.606Z,11.40
2022-09-01T01:33:32.690Z,11.40
2022-09-01T01:35:07.053Z,11.40
2022-09-01T01:36:41.190Z,11.30
2022-09-01T01:38:22.763Z,11.40
2022-09-01T01:39:57.642Z,11.40
2022-09-01T01:41:34.745Z,11.40
2022-09-01T01:43:07.552Z,11.40
2022-09-01T01:44:42.113Z,11.40
2022-09-01T01:46:15.661Z,11.40
2022-09-01T01:47:51.704Z,11.40
2022-09-01T01:49:29.120Z,11.40
2022-09-01T01:51:04.025Z,11.50
2022-09-01T01:52:36.455Z,11.40
2022-09-01T01:54:10.926Z,11.40
2022-09-01T01:55:44.704Z,11.40
2022-09-01T01:57:19.405Z,11.50
2022-09-01T01:58:56.461Z,11.50
2022-09-01T02:00:35.064Z,11.40
2022-09-01T02:02:09.853Z,11.50
2022-09-01T02:03:43.096Z,11.50
2022-09-01T02:05:20.888Z,11.50
2022-09-01T02:06:55.843Z,11.40
2022-09-01T02:08:29.327Z,11.50
2022-09-01T02:10:01.934Z,11.50
2022-09-01T02:11:37.880Z,11.50
2022-09-01T02:13:16.448Z,11.60
2022-09-01T02:14:50.179Z,11.60
2022-09-01T02:16:24.084Z,11.60
2022-09-01T02:18:00.651Z,11.60
2022-09-01T02:19:43.237Z,11.70
2022-09-01T02:21:20.277Z,11.60
2022-09-01T02:22:55.388Z,11.70
2022-09-01T02:24:31.949Z,11.70
2022-09-01T02:26:16.100Z,11.70
2022-09-01T02:27:55.629Z,11.80
2022-09-01T02:29:30.257Z,11.80
2022-09-01T02:31:08.983Z,11.80
2022-09-01T02:32:42.592Z,11.90
2022-09-01T02:34:16.278Z,11.90
2022-09-01T02:35:51.388Z,11.90
2022-09-01T02:37:25.357Z,11.90
2022-09-01T02:38:58.530Z,11.90
2022-09-01T02:40:33.150Z,11.90
2022-09-01T02:42:08.423Z,11.90
2022-09-01T02:43:43.554Z,11.90
2022-09-01T02:45:19.070Z,11.90
2022-09-01T02:46:51.660Z,11.90
2022-09-01T02:48:34.158Z,12.00
2022-09-01T02:50:13.875Z,12.00
2022-09-01T02:51:53.913Z,12.00
2022-09-01T02:53:26.157Z,12.00
2022-09-01T02:54:59.909Z,12.00
2022-09-01T02:56:33.031Z,12.00
2022-09-01T02:58:10.378Z,12.10
2022-09-01T02:59:48.472Z,12.00
2022-09-01T03:01:26.479Z,12.10
2022-09-01T03:03:01.673Z,12.10
2022-09-01T03:04:35.575Z,12.10
2022-09-01T03:06:10.151Z,12.10
2022-09-01T03:07:43.580Z,12.10
2022-09-01T03:09:19.052Z,12.10
2022-09-01T03:10:53.879Z,12.10
2022-09-01T03:12:28.294Z,12.20
2022-09-01T03:14:01.969Z,12.20
2022-09-01T03:15:36.530Z,12.20
2022-09-01T03:17:11.288Z,12.20
2022-09-01T03:18:43.640Z,12.20
2022-09-01T03:20:19.313Z,12.20
2022-09-01T03:21:52.761Z,12.20
2022-09-01T03:23:32.071Z,12.20
2022-09-01T03:25:05.958Z,12.30
2022-09-01T03:26:40.413Z,12.30
2022-09-01T03:28:14.082Z,12.30
2022-09-01T03:29:47.397Z,12.30
2022-09-01T03:31:21.199Z,12.20
2022-09-01T03:32:58.052Z,12.20
2022-09-01T03:34:34.380Z,12.20
2022-09-01T03:36:15.446Z,12.20
2022-09-01T03:37:49.520Z,12.20
2022-09-01T03:39:23.348Z,12.20
2022-09-01T03:41:02.088Z,12.20
2022-09-01T03:42:36.616Z,12.20
2022-09-01T03:44:11.733Z,12.20
2022-09-01T03:45:46.152Z,12.20
2022-09-01T03:47:21.186Z,12.20
2022-09-01T03:48:58.504Z,12.20
2022-09-01T03:50:31.884Z,12.20
2022-09-01T03:52:06.171Z,12.20
2022-09-01T03:53:40.348Z,12.10
2022-09-01T03:55:14.163Z,12.10
2022-09-01T03:56:47.964Z,12.10
2022-09-01T03:58:23.929Z,12.10
2022-09-01T03:59:59.704Z,12.10
2022-09-01T04:01:38.069Z,12.10
2022-09-01T04:03:13.605Z,12.10
2022-09-01T04:04:48.403Z,12.10
2022-09-01T04:06:24.258Z,12.10
2022-09-01T04:08:01.050Z,12.00
2022-09-01T04:09:35.147Z,12.00
2022-09-01T04:11:16.454Z,12.10
2022-09-01T04:12:51.442Z,12.10
2022-09-01T04:14:25.538Z,12.10
2022-09-01T04:16:00.569Z,12.20
2022-09-01T04:17:50.561Z,12.20
2022-09-01T04:19:26.772Z,12.20
2022-09-01T04:21:07.113Z,12.20
2022-09-01T04:22:39.704Z,12.20
2022-09-01T04:24:15.848Z,12.20
2022-09-01T04:25:51.383Z,12.20
2022-09-01T04:27:27.030Z,12.30
2022-09-01T04:29:01.047Z,12.30
2022-09-01T04:30:34.176Z,12.30
2022-09-01T04:32:13.287Z,12.30
2022-09-01T04:33:53.170Z,12.30
2022-09-01T04:35:37.736Z,12.30
2022-09-01T04:37:15.514Z,12.40
2022-09-01T04:38:54.495Z,12.40
2022-09-01T04:40:28.871Z,12.50
2022-09-01T04:42:06.522Z,12.50
2022-09-01T04:43:40.085Z,12.60
2022-09-01T04:45:16.336Z,12.70
2022-09-01T04:46:53.311Z,12.70
2022-09-01T04:48:26.812Z,12.80
2022-09-01T04:50:04.373Z,12.80
2022-09-01T04:51:40.380Z,12.90
2022-09-01T04:53:16.092Z,13.00
2022-09-01T04:54:55.259Z,13.00
2022-09-01T04:56:28.399Z,13.10
2022-09-01T04:58:17.419Z,13.20
2022-09-01T04:59:50.851Z,13.20
2022-09-01T05:01:26.379Z,13.30
2022-09-01T05:03:03.416Z,13.30
2022-09-01T05:04:52.184Z,13.40
2022-09-01T05:06:24.994Z,13.40
2022-09-01T05:08:04.508Z,13.60
2022-09-01T05:09:39.705Z,13.70
2022-09-01T05:11:32.673Z,13.70
2022-09-01T05:13:17.553Z,13.70
2022-09-01T05:14:51.096Z,13.60
2022-09-01T05:16:27.932Z,13.60
2022-09-01T05:18:10.001Z,13.80
2022-09-01T05:19:47.705Z,13.90
2022-09-01T05:21:24.632Z,14.10
2022-09-01T05:22:57.806Z,14.20
2022-09-01T05:24:32.402Z,14.20
2022-09-01T05:26:18.141Z,14.30
2022-09-01T05:27:52.724Z,14.30
2022-09-01T05:29:29.629Z,14.30
2022-09-01T05:31:02.770Z,14.20
2022-09-01T05:32:39.843Z,14.20
2022-09-01T05:34:13.227Z,14.40
2022-09-01T05:35:55.479Z,14.40
2022-09-01T05:37:28.824Z,14.50
2022-09-01T05:39:03.238Z,14.60
2022-09-01T05:40:41.305Z,14.60
2022-09-01T05:42:17.684Z,14.70
2022-09-01T05:43:59.451Z,14.80
2022-09-01T05:45:56.274Z,14.90
2022-09-01T05:47:27.292Z,14.90
2022-09-01T05:49:00.503Z,15.30
2022-09-01T05:50:33.649Z,15.40
2022-09-01T05:52:09.226Z,15.50
2022-09-01T05:53:44.785Z,15.40
2022-09-01T05:55:18.875Z,15.50
2022-09-01T05:56:53.700Z,15.60
2022-09-01T05:59:22.577Z,15.70
2022-09-01T06:00:25.192Z,15.70
2022-09-01T06:01:58.575Z,15.50
2022-09-01T06:03:38.494Z,15.40
2022-09-01T06:05:15.218Z,15.60
2022-09-01T06:07:07.836Z,15.80
2022-09-01T06:08:49.224Z,16.40
2022-09-01T06:10:22.634Z,16.60
2022-09-01T06:11:57.012Z,16.80
2022-09-01T06:13:33.103Z,16.60
2022-09-01T06:15:15.741Z,16.30
2022-09-01T06:16:54.215Z,16.00
2022-09-01T06:18:27.838Z,15.40
2022-09-01T06:20:10.555Z,15.20
2022-09-01T06:21:45.165Z,15.40
2022-09-01T06:23:18.812Z,16.30
2022-09-01T06:24:58.091Z,16.70
2022-09-01T06:26:40.442Z,17.00
2022-09-01T06:28:14.732Z,16.60
2022-09-01T06:29:51.667Z,15.90
2022-09-01T06:31:26.350Z,16.10
2022-09-01T06:33:01.230Z,15.70
2022-09-01T06:34:36.236Z,15.50
2022-09-01T06:36:10.668Z,15.80
2022-09-01T06:37:44.609Z,15.50
2022-09-01T06:39:21.855Z,15.20
2022-09-01T06:41:04.183Z,15.00
2022-09-01T06:42:37.839Z,15.10
2022-09-01T06:44:14.549Z,15.00
2022-09-01T06:45:55.334Z,15.00
2022-09-01T06:47:31.066Z,15.30
2022-09-01T06:49:05.734Z,15.40
2022-09-01T06:53:32.424Z,16.00
2022-09-01T06:54:26.634Z,16.30
2022-09-01T06:56:00.150Z,16.50
2022-09-01T06:59:34.777Z,16.50
2022-09-01T07:01:15.362Z,16.70
2022-09-01T07:02:50.169Z,16.40
2022-09-01T07:04:43.164Z,16.80
2022-09-01T07:08:23.536Z,17.20
2022-09-01T07:10:24.475Z,17.10
2022-09-01T07:12:25.682Z,16.00
2022-09-01T07:14:17.218Z,16.10
2022-09-01T07:17:53.116Z,16.90
2022-09-01T07:19:48.218Z,17.50
2022-09-01T07:21:39.424Z,17.70
2022-09-01T07:23:15.154Z,18.10
2022-09-01T07:25:11.435Z,18.50
2022-09-01T07:27:11.319Z,18.70
2022-09-01T07:28:47.789Z,18.80
2022-09-01T07:30:23.967Z,18.30
2022-09-01T07:33:55.753Z,19.40
2022-09-01T07:43:56.652Z,20.00
2022-09-01T07:45:58.272Z,20.10
2022-09-01T07:49:33.237Z,20.90
2022-09-01T07:53:03.524Z,18.70
2022-09-01T07:54:37.256Z,19.30
2022-09-01T07:56:11.892Z,20.10
2022-09-01T07:57:50.074Z,20.50
2022-09-01T07:59:23.905Z,20.70
2022-09-01T08:01:08.920Z,19.60
2022-09-01T08:02:44.503Z,18.70
2022-09-01T08:04:22.947Z,18.50
2022-09-01T08:06:03.987Z,18.20
2022-09-01T08:07:51.729Z,18.70
2022-09-01T08:09:32.958Z,19.20
2022-09-01T08:11:16.667Z,19.80
2022-09-01T08:12:57.522Z,19.60
2022-09-01T08:14:34.145Z,20.00
2022-09-01T08:16:15.970Z,19.50
2022-09-01T08:17:51.553Z,19.50
2022-09-01T08:19:25.119Z,19.20
2022-09-01T08:21:26.232Z,19.90
2022-09-01T08:23:05.736Z,18.90
2022-09-01T08:24:40.860Z,19.10
2022-09-01T08:26:16.726Z,19.70
2022-09-01T08:27:50.373Z,20.20
2022-09-01T08:29:32.612Z,20.00
2022-09-01T08:31:11.355Z,19.90
2022-09-01T08:32:45.079Z,20.40
2022-09-01T08:34:19.841Z,20.10
2022-09-01T08:35:54.155Z,20.10
2022-09-01T08:37:29.927Z,19.40
2022-09-01T08:39:03.145Z,20.00
2022-09-01T08:40:37.947Z,20.20
2022-09-01T08:42:23.050Z,21.00
2022-09-01T08:44:04.811Z,21.50
2022-09-01T08:45:45.542Z,22.10
2022-09-01T08:47:28.820Z,22.50
2022-09-01T08:49:24.795Z,22.80
2022-09-01T08:51:32.580Z,22.50
2022-09-01T08:53:18.900Z,22.00
2022-09-01T08:54:56.982Z,21.20
2022-09-01T08:56:30.741Z,21.00
2022-09-01T08:58:05.764Z,22.10
2022-09-01T09:00:02.201Z,22.30
2022-09-01T09:01:45.555Z,23.40
2022-09-01T09:03:40.420Z,23.40
2022-09-01T09:05:32.001Z,23.50
2022-09-01T09:07:13.788Z,23.90
2022-09-01T09:08:55.490Z,21.90
2022-09-01T09:10:37.225Z,20.50
2022-09-01T09:12:26.181Z,21.10
2022-09-01T09:14:06.804Z,22.10
2022-09-01T09:15:44.969Z,22.40
2022-09-01T09:17:23.495Z,21.80
2022-09-01T09:19:02.157Z,21.90
2022-09-01T09:20:35.470Z,21.70
2022-09-01T09:22:11.507Z,20.50
2022-09-01T09:23:49.145Z,20.80
2022-09-01T09:25:24.319Z,21.50
2022-09-01T09:26:59.797Z,22.10
2022-09-01T09:28:32.942Z,22.80
2022-09-01T09:30:11.440Z,23.50
2022-09-01T09:31:50.038Z,23.90
2022-09-01T09:33:51.444Z,24.20
2022-09-01T09:35:29.319Z,24.30
2022-09-01T09:37:18.425Z,24.10
2022-09-01T09:39:07.254Z,23.10
2022-09-01T09:41:16.011Z,21.60
2022-09-01T09:43:06.922Z,21.10
2022-09-01T09:44:45.074Z,21.60
2022-09-01T09:46:28.681Z,22.50
2022-09-01T09:48:05.991Z,23.80
2022-09-01T09:49:43.244Z,24.40
2022-09-01T09:51:23.544Z,25.00
2022-09-01T09:53:16.838Z,25.70
2022-09-01T09:55:04.604Z,23.50
2022-09-01T09:56:41.597Z,24.20
2022-09-01T09:58:15.072Z,24.40
2022-09-01T09:59:59.226Z,23.50
2022-09-01T10:01:34.209Z,23.30
2022-09-01T10:03:12.400Z,22.80
2022-09-01T10:04:45.865Z,23.10
2022-09-01T10:06:33.005Z,23.90
2022-09-01T10:08:08.609Z,24.80
2022-09-01T10:09:41.831Z,25.10
2022-09-01T10:11:33.515Z,25.00
2022-09-01T10:13:14.700Z,24.70
2022-09-01T10:14:53.458Z,23.40
2022-09-01T10:16:32.090Z,24.00
2022-09-01T10:18:20.029Z,23.80
2022-09-01T10:19:58.306Z,23.20
2022-09-01T10:21:37.186Z,23.50
2022-09-01T10:23:15.295Z,23.00
2022-09-01T10:24:50.480Z,23.10
2022-09-01T10:26:27.418Z,24.10
2022-09-01T10:28:08.138Z,24.80
2022-09-01T10:29:47.920Z,24.90
2022-09-01T10:31:23.081Z,25.60
2022-09-01T10:33:03.395Z,25.60
2022-09-01T10:34:42.883Z,24.40
2022-09-01T10:36:17.121Z,23.10
2022-09-01T10:37:51.879Z,23.50
2022-09-01T10:39:29.455Z,24.40
2022-09-01T10:41:14.708Z,24.70
2022-09-01T10:42:53.890Z,24.10
2022-09-01T10:44:31.851Z,24.30
2022-09-01T10:46:49.372Z,25.40
2022-09-01T10:48:32.061Z,25.90
2022-09-01T10:50:24.665Z,23.90
2022-09-01T10:52:03.230Z,24.50
2022-09-01T10:53:40.849Z,24.50
2022-09-01T10:55:24.707Z,23.10
2022-09-01T10:57:03.887Z,24.60
2022-09-01T11:03:30.475Z,27.80
2022-09-01T11:05:18.254Z,27.60
2022-09-01T11:07:17.228Z,26.30
2022-09-01T11:09:01.963Z,24.30
2022-09-01T11:10:56.168Z,23.80
2022-09-01T11:12:48.404Z,23.60
2022-09-01T11:14:23.169Z,23.80
2022-09-01T11:15:58.409Z,23.90
2022-09-01T11:17:37.325Z,24.40
2022-09-01T11:19:38.822Z,24.50
2022-09-01T11:21:27.092Z,24.50
2022-09-01T11:23:03.771Z,24.00
2022-09-01T11:24:57.918Z,24.10
2022-09-01T11:26:49.538Z,24.00
2022-09-01T11:28:47.259Z,23.70
2022-09-01T11:30:21.842Z,22.70
2022-09-01T11:31:55.395Z,22.90
2022-09-01T11:33:42.167Z,23.10
2022-09-01T11:35:19.485Z,23.20
2022-09-01T11:36:58.917Z,23.40
2022-09-01T11:38:42.888Z,23.40
2022-09-01T11:40:23.747Z,23.20
2022-09-01T11:42:04.333Z,22.90
2022-09-01T11:43:38.200Z,22.70
2022-09-01T11:45:21.792Z,22.50
2022-09-01T11:47:01.400Z,22.30
2022-09-01T11:48:34.892Z,22.00
2022-09-01T11:50:18.142Z,21.80
2022-09-01T11:51:51.343Z,21.80
2022-09-01T11:53:26.883Z,21.80
2022-09-01T11:55:00.701Z,21.90
2022-09-01T11:56:34.004Z,22.10
2022-09-01T11:58:15.744Z,22.20
2022-09-01T11:59:51.762Z,22.30
2022-09-01T12:01:33.573Z,22.30
2022-09-01T12:03:20.962Z,22.10
2022-09-01T12:04:56.954Z,22.30
2022-09-01T12:06:30.837Z,21.80
2022-09-01T12:08:06.982Z,21.60
2022-09-01T12:09:45.157Z,22.10
2022-09-01T12:11:22.761Z,21.90
2022-09-01T12:13:02.776Z,22.10
2022-09-01T12:15:01.918Z,22.00
2022-09-01T12:16:30.952Z,22.30
2022-09-01T12:18:14.829Z,22.50
2022-09-01T12:19:47.993Z,22.60
2022-09-01T12:21:24.889Z,22.60
2022-09-01T12:22:59.479Z,22.40
2022-09-01T12:24:37.032Z,22.50
2022-09-01T12:26:14.899Z,22.80
2022-09-01T12:27:48.249Z,22.20
2022-09-01T12:29:21.636Z,22.50
2022-09-01T12:30:55.925Z,22.60
2022-09-01T12:32:29.039Z,22.90
2022-09-01T12:34:04.566Z,22.90
2022-09-01T12:35:37.741Z,22.60
2022-09-01T12:37:14.004Z,22.80
2022-09-01T12:38:47.264Z,22.90
2022-09-01T12:40:31.608Z,22.90
2022-09-01T12:42:10.214Z,23.10
2022-09-01T12:43:44.116Z,23.30
2022-09-01T12:45:38.763Z,23.50
2022-09-01T12:47:14.607Z,23.40
2022-09-01T12:48:49.572Z,23.30
2022-09-01T12:50:46.850Z,23.60
2022-09-01T12:52:26.548Z,23.70
2022-09-01T12:54:04.904Z,23.60
2022-09-01T12:55:53.824Z,23.50
2022-09-01T12:57:32.668Z,23.60
2022-09-01T12:59:14.400Z,23.80
2022-09-01T13:00:57.866Z,23.60
2022-09-01T13:02:36.832Z,23.50
2022-09-01T13:04:34.126Z,23.40
2022-09-01T13:06:08.012Z,23.40
2022-09-01T13:07:42.394Z,23.30
2022-09-01T13:09:15.539Z,23.30
2022-09-01T13:10:51.693Z,23.70
2022-09-01T13:12:24.953Z,24.10
2022-09-01T13:13:59.532Z,24.20
2022-09-01T13:15:33.019Z,23.90
2022-09-01T13:17:06.416Z,24.10
2022-09-01T13:20:42.035Z,25.30
2022-09-01T13:22:15.237Z,25.90
2022-09-01T13:23:48.520Z,26.80
2022-09-01T13:25:23.740Z,27.20
2022-09-01T13:28:51.619Z,27.70
2022-09-01T13:30:28.450Z,27.40
2022-09-01T13:32:20.930Z,27.50
2022-09-01T13:34:21.732Z,27.80
2022-09-01T13:35:48.149Z,28.00
2022-09-01T13:37:22.494Z,28.60
2022-09-01T13:38:55.775Z,28.70
2022-09-01T13:40:29.238Z,28.20
2022-09-01T13:42:02.432Z,26.00
2022-09-01T13:43:36.326Z,23.80
2022-09-01T13:45:16.391Z,22.60
2022-09-01T13:52:32.912Z,22.50
2022-09-01T13:54:06.180Z,22.50
2022-09-01T13:55:41.421Z,22.40
2022-09-01T13:57:16.325Z,22.20
2022-09-01T13:58:49.795Z,22.20
2022-09-01T14:00:25.904Z,22.20
2022-09-01T14:02:01.605Z,22.00
2022-09-01T14:03:35.249Z,22.00
2022-09-01T14:05:09.338Z,21.80
2022-09-01T14:06:44.254Z,21.80
2022-09-01T14:08:20.842Z,21.80
2022-09-01T14:09:55.032Z,21.60
2022-09-01T14:11:29.739Z,21.50
2022-09-01T14:13:02.885Z,21.40
2022-09-01T14:16:29.190Z,21.30
2022-09-01T14:18:04.542Z,21.50
2022-09-01T14:19:37.702Z,21.60
2022-09-01T14:21:12.824Z,21.80
2022-09-01T14:22:46.385Z,21.70
2022-09-01T14:24:19.956Z,21.80
2022-09-01T14:25:53.164Z,21.70
2022-09-01T14:27:25.435Z,21.50
2022-09-01T14:28:58.927Z,21.50
2022-09-01T14:30:34.295Z,21.70
2022-09-01T14:32:08.041Z,21.70
2022-09-01T14:33:43.058Z,21.80
2022-09-01T14:35:17.827Z,21.80
2022-09-01T14:36:52.129Z,21.80
2022-09-01T14:38:25.482Z,21.80
2022-09-01T14:39:59.446Z,21.80
2022-09-01T14:41:33.939Z,21.90
2022-09-01T14:43:09.711Z,22.00
2022-09-01T14:44:43.614Z,22.10
2022-09-01T14:46:18.629Z,21.90
2022-09-01T14:47:53.747Z,21.80
2022-09-01T14:49:33.201Z,21.80
2022-09-01T14:51:06.969Z,21.80
2022-09-01T14:52:40.153Z,21.70
2022-09-01T14:54:13.548Z,21.70
2022-09-01T14:55:47.076Z,21.70
2022-09-01T14:57:37.693Z,21.60
2022-09-01T14:59:11.712Z,21.60
2022-09-01T15:00:45.144Z,21.70
2022-09-01T15:02:18.525Z,21.70
2022-09-01T15:03:51.974Z,21.70
2022-09-01T15:05:26.679Z,21.60
2022-09-01T15:07:00.020Z,21.60
2022-09-01T15:08:33.169Z,21.60
2022-09-01T15:10:08.267Z,21.50
2022-09-01T15:11:44.045Z,21.50
2022-09-01T15:13:17.312Z,21.50
2022-09-01T15:14:50.712Z,21.40
2022-09-01T15:16:25.493Z,21.40
2022-09-01T15:18:00.040Z,21.50
2022-09-01T15:19:33.175Z,21.40
2022-09-01T15:21:07.099Z,21.40
2022-09-01T15:22:42.014Z,21.30
2022-09-01T15:24:15.338Z,21.20
2022-09-01T15:25:49.268Z,21.30
2022-09-01T15:27:22.628Z,21.30
2022-09-01T15:28:56.913Z,21.40
2022-09-01T15:30:30.079Z,21.20
2022-09-01T15:32:03.540Z,21.10
2022-09-01T15:33:37.110Z,21.20
2022-09-01T15:35:12.659Z,21.10
2022-09-01T15:36:47.336Z,21.10
2022-09-01T15:38:20.644Z,21.00
2022-09-01T15:39:52.938Z,20.90
2022-09-01T15:41:27.924Z,20.90
2022-09-01T15:43:01.649Z,20.70
2022-09-01T15:44:35.694Z,20.70
2022-09-01T15:46:08.865Z,20.70
2022-09-01T15:47:45.656Z,20.70
2022-09-01T15:49:19.237Z,20.60
2022-09-01T15:50:52.400Z,20.60
2022-09-01T15:52:27.669Z,20.50
2022-09-01T15:54:03.457Z,20.40
2022-09-01T15:55:41.936Z,20.40
2022-09-01T15:57:15.117Z,20.50
2022-09-01T15:59:02.018Z,20.40
2022-09-01T16:00:35.583Z,20.30
2022-09-01T16:02:09.425Z,20.10
2022-09-01T16:03:42.576Z,20.10
2022-09-01T16:05:15.931Z,19.90
2022-09-01T16:06:50.905Z,19.80
2022-09-01T16:08:25.399Z,19.80
2022-09-01T16:09:58.726Z,19.70
2022-09-01T16:11:31.900Z,19.70
2022-09-01T16:13:05.619Z,19.60
2022-09-01T16:14:40.443Z,19.60
2022-09-01T16:16:26.770Z,19.60
2022-09-01T16:18:21.130Z,19.50
2022-09-01T16:19:57.582Z,19.40
2022-09-01T16:21:38.962Z,19.40
2022-09-01T16:23:17.033Z,19.30
2022-09-01T16:24:54.213Z,19.30
2022-09-01T16:26:27.320Z,19.30
2022-09-01T16:28:04.175Z,19.20
2022-09-01T16:29:45.497Z,19.20
2022-09-01T16:31:24.869Z,19.10
2022-09-01T16:33:00.312Z,19.10
2022-09-01T16:34:34.692Z,19.10
2022-09-01T16:36:19.702Z,19.00
2022-09-01T16:37:59.268Z,19.00
2022-09-01T16:39:39.432Z,18.90
2022-09-01T16:41:28.064Z,18.90
2022-09-01T16:43:07.587Z,18.80
2022-09-01T16:44:50.022Z,18.80
2022-09-01T16:46:29.737Z,18.70
2022-09-01T16:48:12.822Z,18.60
2022-09-01T16:49:54.309Z,18.70
2022-09-01T16:51:32.561Z,18.60
2022-09-01T16:53:17.624Z,18.60
2022-09-01T16:55:06.970Z,18.60
2022-09-01T16:56:51.270Z,18.60
2022-09-01T16:58:31.824Z,18.70
2022-09-01T17:00:08.474Z,18.70
2022-09-01T17:01:49.471Z,18.60
2022-09-01T17:03:37.790Z,18.60
2022-09-01T17:05:22.543Z,18.60
2022-09-01T17:07:01.406Z,18.50
2022-09-01T17:08:44.931Z,18.50
2022-09-01T17:10:32.793Z,18.50
2022-09-01T17:12:27.655Z,18.40
2022-09-01T17:14:02.796Z,18.40
2022-09-01T17:15:40.945Z,18.30
2022-09-01T17:17:18.838Z,18.20
2022-09-01T17:18:56.796Z,18.00
2022-09-01T17:20:35.185Z,17.90
2022-09-01T17:22:12.464Z,17.70
2022-09-01T17:23:54.533Z,17.50
2022-09-01T17:25:32.724Z,17.30
2022-09-01T17:27:10.942Z,17.20
2022-09-01T17:28:52.056Z,17.00
2022-09-01T17:30:25.279Z,16.90
2022-09-01T17:32:05.250Z,16.80
2022-09-01T17:33:53.851Z,16.60
2022-09-01T17:35:33.574Z,16.50
2022-09-01T17:37:17.540Z,16.30
2022-09-01T17:38:56.932Z,16.20
2022-09-01T17:40:45.891Z,16.10
2022-09-01T17:42:28.466Z,16.00
2022-09-01T17:44:17.978Z,15.90
2022-09-01T17:45:58.274Z,15.90
2022-09-01T17:47:38.839Z,15.90
2022-09-01T17:49:19.337Z,15.80
2022-09-01T17:51:07.897Z,15.70
2022-09-01T17:52:53.137Z,15.60
2022-09-01T17:54:34.750Z,15.50
2022-09-01T17:56:20.601Z,15.40
2022-09-01T17:57:59.550Z,15.30
2022-09-01T17:59:40.908Z,15.20
2022-09-01T18:01:23.650Z,15.00
2022-09-01T18:03:14.835Z,14.90
2022-09-01T18:05:02.882Z,14.80
2022-09-01T18:06:40.383Z,14.70
2022-09-01T18:08:28.101Z,14.60
2022-09-01T18:10:07.507Z,14.50
2022-09-01T18:11:48.308Z,14.50
2022-09-01T18:13:52.995Z,14.40
2022-09-01T18:15:24.711Z,14.20
2022-09-01T18:17:03.458Z,14.20
2022-09-01T18:18:38.991Z,14.10
2022-09-01T18:20:18.245Z,14.10
2022-09-01T18:21:55.892Z,14.10
2022-09-01T18:23:33.192Z,14.10
2022-09-01T18:25:11.187Z,14.00
2022-09-01T18:26:48.147Z,13.90
2022-09-01T18:28:21.772Z,13.80
2022-09-01T18:29:54.975Z,13.80
2022-09-01T18:31:56.773Z,13.80
2022-09-01T18:33:37.765Z,13.80
2022-09-01T18:35:25.552Z,13.80
2022-09-01T18:37:03.633Z,13.80
2022-09-01T18:38:44.126Z,13.80
2022-09-01T18:40:25.509Z,13.70
2022-09-01T18:42:11.023Z,13.70
2022-09-01T18:43:49.559Z,13.70
2022-09-01T18:45:31.252Z,13.70
2022-09-01T18:47:10.856Z,13.70
2022-09-01T18:48:59.891Z,13.70
2022-09-01T18:50:42.460Z,13.70
2022-09-01T18:52:38.890Z,13.70
2022-09-01T18:54:17.759Z,13.60
2022-09-01T18:55:58.482Z,13.60
2022-09-01T18:57:38.687Z,13.60
2022-09-01T18:59:34.794Z,13.60
2022-09-01T19:01:13.994Z,13.60
2022-09-01T19:03:03.022Z,13.60
2022-09-01T19:04:41.105Z,13.60
2022-09-01T19:06:26.964Z,13.60
2022-09-01T19:08:05.169Z,13.60
2022-09-01T19:09:52.217Z,13.60
2022-09-01T19:11:33.714Z,13.50
2022-09-01T19:13:14.466Z,13.60
2022-09-01T19:14:57.229Z,13.60
2022-09-01T19:16:42.845Z,13.60
2022-09-01T19:18:28.607Z,13.60
2022-09-01T19:20:05.374Z,13.60
2022-09-01T19:21:39.312Z,13.50
2022-09-01T19:23:15.253Z,13.50
2022-09-01T19:24:51.867Z,13.50
2022-09-01T19:26:25.734Z,13.40
2022-09-01T19:28:05.451Z,13.30
2022-09-01T19:29:45.208Z,13.30
2022-09-01T19:31:24.030Z,13.30
2022-09-01T19:33:00.143Z,13.20
2022-09-01T19:34:39.893Z,13.20
2022-09-01T19:36:20.115Z,13.10
2022-09-01T19:37:53.493Z,13.10
2022-09-01T19:39:28.802Z,13.10
2022-09-01T19:41:19.279Z,13.00
2022-09-01T19:42:59.373Z,13.00
2022-09-01T19:44:42.162Z,12.90
2022-09-01T19:46:24.259Z,12.90
2022-09-01T19:48:04.189Z,12.80
2022-09-01T19:49:44.850Z,12.80
2022-09-01T19:51:25.397Z,12.70
2022-09-01T19:53:04.867Z,12.70
2022-09-01T19:54:47.201Z,12.60
2022-09-01T19:56:24.756Z,12.60
2022-09-01T19:58:04.824Z,12.60
2022-09-01T19:59:51.116Z,12.50
2022-09-01T20:01:40.732Z,12.40
2022-09-01T20:03:18.621Z,12.30
2022-09-01T20:04:57.614Z,12.30
2022-09-01T20:06:35.094Z,12.20
2022-09-01T20:08:15.092Z,12.20
2022-09-01T20:09:52.709Z,12.10
2022-09-01T20:11:36.056Z,12.10
2022-09-01T20:13:24.999Z,12.00
2022-09-01T20:15:12.416Z,12.00
2022-09-01T20:16:48.561Z,12.00
2022-09-01T20:18:29.339Z,11.90
2022-09-01T20:20:10.338Z,11.80
2022-09-01T20:21:47.392Z,11.90
2022-09-01T20:23:28.213Z,11.80
2022-09-01T20:25:09.755Z,11.80
2022-09-01T20:26:48.572Z,11.70
2022-09-01T20:28:35.771Z,11.60
2022-09-01T20:30:12.127Z,11.60
2022-09-01T20:31:49.597Z,11.60
2022-09-01T20:33:31.582Z,11.60
2022-09-01T20:35:12.417Z,11.50
2022-09-01T20:36:50.384Z,11.60
2022-09-01T20:38:53.611Z,11.50
2022-09-01T20:40:30.837Z,11.50
2022-09-01T20:42:08.038Z,11.40
2022-09-01T20:43:45.027Z,11.40
2022-09-01T20:45:20.213Z,11.40
2022-09-01T20:46:54.228Z,11.30
2022-09-01T20:48:31.723Z,11.30
2022-09-01T20:50:12.548Z,11.20
2022-09-01T20:51:51.581Z,11.20
2022-09-01T20:53:47.128Z,11.20
2022-09-01T20:55:31.734Z,11.20
2022-09-01T20:57:18.402Z,11.20
2022-09-01T20:58:58.849Z,11.10
2022-09-01T21:00:35.456Z,11.10
2022-09-01T21:02:21.848Z,11.10
2022-09-01T21:04:03.902Z,11.00
2022-09-01T21:05:48.115Z,11.00
2022-09-01T21:07:30.659Z,10.90
2022-09-01T21:09:11.419Z,10.90
2022-09-01T21:10:52.701Z,10.90
2022-09-01T21:12:36.227Z,10.80
2022-09-01T21:14:21.431Z,10.80
2022-09-01T21:16:00.416Z,10.80
2022-09-01T21:17:43.106Z,10.80
2022-09-01T21:19:22.631Z,10.80
2022-09-01T21:21:03.689Z,10.70
2022-09-01T21:22:36.926Z,10.70
2022-09-01T21:24:09.041Z,10.70
2022-09-01T21:25:44.253Z,10.70
2022-09-01T21:27:21.108Z,10.70
2022-09-01T21:28:56.946Z,10.70
2022-09-01T21:30:34.023Z,10.70
2022-09-01T21:32:07.514Z,10.70
2022-09-01T21:33:40.617Z,10.80
2022-09-01T21:35:19.284Z,10.80
2022-09-01T21:36:53.626Z,10.80
2022-09-01T21:38:29.994Z,10.90
2022-09-01T21:40:03.776Z,10.90
2022-09-01T21:41:36.993Z,10.90
2022-09-01T21:43:16.252Z,10.90
2022-09-01T21:44:50.473Z,10.80
2022-09-01T21:46:28.248Z,10.80
2022-09-01T21:48:03.047Z,10.80
2022-09-01T21:49:36.558Z,10.70